TimeCST,TemperatureF,Dew PointF,Humidity,Sea Level PressureIn,VisibilityMPH,Wind Direction,Wind SpeedMPH,Gust SpeedMPH,PrecipitationIn,Events,Conditions,WindDirDegrees,DateUTC
12:15 AM,-4.2,-8.5,82,30.03,10.0,West,5.8,-,N/A,,Clear,260,2013-12-11 06:15:00
12:35 AM,-4.4,-8.7,82,30.03,10.0,West,4.6,-,N/A,,Clear,260,2013-12-11 06:35:00
12:55 AM,-5.1,-9.4,82,30.03,10.0,West,4.6,-,N/A,,Clear,260,2013-12-11 06:55:00
1:15 AM,-5.3,-9.4,82,30.03,10.0,West,4.6,-,N/A,,Clear,270,2013-12-11 07:15:00
1:35 AM,-5.1,-9.4,82,30.04,10.0,West,6.9,-,N/A,,Clear,270,2013-12-11 07:35:00
1:55 AM,-5.1,-9.6,81,30.06,10.0,West,8.1,-,N/A,,Clear,270,2013-12-11 07:55:00
2:15 AM,-5.3,-9.6,82,30.07,10.0,West,5.8,-,N/A,,Clear,270,2013-12-11 08:15:00
2:35 AM,-5.8,-10.3,81,30.08,10.0,West,4.6,-,N/A,,Clear,260,2013-12-11 08:35:00
2:55 AM,-6.2,-10.5,82,30.08,7.0,West,4.6,-,N/A,Snow,Light Snow,260,2013-12-11 08:55:00
3:15 AM,-6.7,-11.0,81,30.09,7.0,WSW,4.6,-,N/A,Snow,Light Snow,250,2013-12-11 09:15:00
3:35 AM,-6.7,-11.2,81,30.09,5.0,West,4.6,-,N/A,Snow,Light Snow,260,2013-12-11 09:35:00
3:55 AM,-6.9,-11.4,81,30.09,10.0,West,4.6,-,N/A,Snow,Light Snow,270,2013-12-11 09:55:00
4:15 AM,-7.6,-12.3,80,30.10,10.0,West,3.5,-,N/A,Snow,Light Snow,280,2013-12-11 10:15:00
4:35 AM,-7.6,-12.3,80,30.10,10.0,West,5.8,-,N/A,,Clear,260,2013-12-11 10:35:00
4:55 AM,-7.8,-12.5,80,30.11,10.0,West,4.6,-,N/A,,Clear,260,2013-12-11 10:55:00
5:15 AM,-8.1,-13.0,79,30.12,10.0,West,4.6,-,N/A,,Clear,280,2013-12-11 11:15:00
5:35 AM,-8.1,-13.0,79,30.13,10.0,West,4.6,-,N/A,,Clear,270,2013-12-11 11:35:00
5:55 AM,-8.5,-13.4,79,30.14,10.0,West,4.6,-,N/A,,Clear,270,2013-12-11 11:55:00
6:15 AM,-8.7,-13.9,78,30.15,10.0,West,6.9,-,N/A,,Clear,280,2013-12-11 12:15:00
6:35 AM,-8.7,-13.9,78,30.16,10.0,West,4.6,-,N/A,,Clear,270,2013-12-11 12:35:00
6:55 AM,-8.7,-13.5,79,30.17,10.0,West,5.8,-,N/A,,Clear,280,2013-12-11 12:55:00
7:15 AM,-8.9,-14.1,78,30.19,10.0,West,6.9,-,N/A,Snow,Light Snow,270,2013-12-11 13:15:00
7:35 AM,-9.2,-14.3,79,30.19,7.0,West,6.9,-,N/A,Snow,Light Snow,270,2013-12-11 13:35:00
7:55 AM,-8.7,-13.9,78,30.19,10.0,West,6.9,-,N/A,,Clear,260,2013-12-11 13:55:00
8:15 AM,-8.3,-13.5,78,30.20,10.0,West,8.1,-,N/A,,Clear,270,2013-12-11 14:15:00
8:35 AM,-7.6,-13.0,77,30.21,10.0,West,8.1,-,N/A,,Clear,270,2013-12-11 14:35:00
8:55 AM,-7.2,-13.0,76,30.22,10.0,West,8.1,-,N/A,,Clear,280,2013-12-11 14:55:00
9:15 AM,-6.2,-11.7,77,30.23,10.0,West,8.1,-,N/A,,Clear,280,2013-12-11 15:15:00
9:35 AM,-5.3,-11.2,76,30.24,10.0,West,6.9,-,N/A,,Clear,280,2013-12-11 15:35:00
9:55 AM,-4.5,-11.0,74,30.24,10.0,West,8.1,16.1,N/A,,Clear,280,2013-12-11 15:55:00
10:15 AM,-3.6,-10.7,72,30.25,10.0,West,10.4,16.1,N/A,,Clear,280,2013-12-11 16:15:00
10:35 AM,-2.9,-10.5,70,30.25,10.0,West,8.1,16.1,N/A,,Clear,280,2013-12-11 16:35:00
10:55 AM,-2.2,-10.5,68,30.25,10.0,WNW,11.5,17.3,N/A,,Clear,290,2013-12-11 16:55:00
11:15 AM,-1.3,-10.1,66,30.25,10.0,West,5.8,16.1,N/A,,Clear,270,2013-12-11 17:15:00
11:35 AM,-0.8,-10.1,65,30.25,10.0,WNW,8.1,17.3,N/A,,Clear,290,2013-12-11 17:35:00
11:55 AM,-0.4,-9.8,65,30.25,10.0,West,9.2,16.1,N/A,,Clear,280,2013-12-11 17:55:00
12:15 PM,0.1,-9.8,63,30.25,10.0,West,10.4,16.1,N/A,,Clear,260,2013-12-11 18:15:00
12:35 PM,0.5,-9.4,63,30.25,10.0,West,4.6,-,N/A,,Clear,260,2013-12-11 18:35:00
12:55 PM,0.5,-9.6,63,30.25,10.0,West,6.9,-,N/A,,Clear,280,2013-12-11 18:55:00
1:15 PM,0.5,-9.2,64,30.25,10.0,West,8.1,-,N/A,,Clear,260,2013-12-11 19:15:00
1:35 PM,1.0,-9.2,62,30.24,10.0,West,9.2,-,N/A,,Clear,280,2013-12-11 19:35:00
1:55 PM,0.5,-9.6,63,30.24,10.0,West,10.4,-,N/A,,Clear,270,2013-12-11 19:55:00
2:15 PM,0.3,-9.8,63,30.24,10.0,West,8.1,-,N/A,,Clear,280,2013-12-11 20:15:00
2:35 PM,-0.0,-9.9,63,30.24,10.0,West,8.1,-,N/A,,Clear,260,2013-12-11 20:35:00
2:55 PM,-0.4,-9.8,65,30.24,10.0,WSW,5.8,-,N/A,,Clear,250,2013-12-11 20:55:00
3:15 PM,-0.8,-9.6,66,30.25,10.0,West,6.9,-,N/A,,Clear,280,2013-12-11 21:15:00
3:35 PM,-2.0,-10.3,68,30.25,10.0,WSW,5.8,-,N/A,,Clear,240,2013-12-11 21:35:00
3:55 PM,-3.1,-10.8,70,30.26,10.0,West,6.9,-,N/A,,Clear,260,2013-12-11 21:55:00
4:15 PM,-4.2,-11.2,72,30.26,10.0,WSW,5.8,-,N/A,,Clear,250,2013-12-11 22:15:00
4:35 PM,-4.9,-11.4,74,30.27,10.0,WSW,3.5,-,N/A,,Clear,250,2013-12-11 22:35:00
4:55 PM,-5.4,-11.6,75,30.28,10.0,WSW,5.8,-,N/A,,Clear,250,2013-12-11 22:55:00
5:15 PM,-5.8,-11.7,75,30.28,10.0,WSW,4.6,-,N/A,,Clear,250,2013-12-11 23:15:00
5:35 PM,-6.2,-11.7,77,30.28,10.0,WSW,4.6,-,N/A,,Clear,250,2013-12-11 23:35:00
5:55 PM,-6.9,-12.3,77,30.28,10.0,WSW,3.5,-,N/A,,Clear,240,2013-12-11 23:55:00
6:15 PM,-7.6,-12.8,78,30.27,10.0,WSW,3.5,-,N/A,,Clear,250,2013-12-12 00:15:00
6:35 PM,-8.0,-13.0,79,30.27,10.0,Calm,Calm,-,N/A,,Clear,0,2013-12-12 00:35:00
6:55 PM,-8.1,-13.2,79,30.27,10.0,WSW,3.5,-,N/A,,Clear,250,2013-12-12 00:55:00
7:15 PM,-8.5,-13.4,79,30.26,10.0,West,4.6,-,N/A,,Clear,260,2013-12-12 01:15:00
7:35 PM,-8.5,-13.5,79,30.26,10.0,WSW,6.9,-,N/A,,Clear,250,2013-12-12 01:35:00
7:55 PM,-8.1,-13.4,78,30.26,10.0,West,5.8,-,N/A,,Clear,260,2013-12-12 01:55:00
8:15 PM,-8.7,-13.9,78,30.25,10.0,WSW,4.6,-,N/A,,Clear,250,2013-12-12 02:15:00
8:35 PM,-9.4,-14.3,79,30.25,10.0,West,5.8,-,N/A,,Clear,260,2013-12-12 02:35:00
8:55 PM,-9.0,-14.3,78,30.25,10.0,WSW,5.8,-,N/A,,Clear,250,2013-12-12 02:55:00
9:15 PM,-9.4,-14.6,78,30.25,10.0,WSW,4.6,-,N/A,,Clear,240,2013-12-12 03:15:00
9:35 PM,-9.9,-15.0,78,30.23,10.0,Calm,Calm,-,N/A,,Clear,0,2013-12-12 03:35:00
9:55 PM,-10.8,-15.9,78,30.23,10.0,Calm,Calm,-,N/A,,Scattered Clouds,0,2013-12-12 03:55:00
10:15 PM,-10.8,-15.7,79,30.22,10.0,SW,3.5,-,N/A,,Scattered Clouds,230,2013-12-12 04:15:00
10:35 PM,-10.7,-15.7,78,30.22,10.0,SW,3.5,-,N/A,,Scattered Clouds,230,2013-12-12 04:35:00
10:55 PM,-10.5,-15.5,78,30.22,10.0,SW,4.6,-,N/A,,Scattered Clouds,230,2013-12-12 04:55:00
11:15 PM,-9.4,-14.8,77,30.21,10.0,SW,3.5,-,N/A,,Scattered Clouds,230,2013-12-12 05:15:00
11:35 PM,-9.4,-14.8,77,30.20,10.0,WSW,4.6,-,N/A,,Mostly Cloudy,240,2013-12-12 05:35:00
11:55 PM,-9.4,-14.8,77,30.20,10.0,SW,4.6,-,N/A,,Overcast,230,2013-12-12 05:55:00